sensor_id;sensor_type;location;lat;lon;timestamp;P1;durP1;ratioP1;P2;durP2;ratioP2
63018;SDS011;49105;46.046;10.760;2022-09-09T00:00:35;1.80;;;1.80;;
63018;SDS011;49105;46.046;10.760;2022-09-09T00:03:12;1.70;;;1.70;;
63018;SDS011;49105;46.046;10.760;2022-09-09T00:06:13;1.80;;;1.80;;
63018;SDS011;49105;46.046;10.760;2022-09-09T00:08:51;1.80;;;1.80;;
63018;SDS011;49105;46.046;10.760;2022-09-09T00:11:31;1.60;;;1.60;;
63018;SDS011;49105;46.046;10.760;2022-09-09T00:14:08;2.00;;;2.00;;
63018;SDS011;49105;46.046;10.760;2022-09-09T00:16:41;1.80;;;1.80;;
63018;SDS011;49105;46.046;10.760;2022-09-09T00:19:20;2.15;;;2.05;;
63018;SDS011;49105;46.046;10.760;2022-09-09T00:21:52;1.70;;;1.70;;
63018;SDS011;49105;46.046;10.760;2022-09-09T00:27:04;1.70;;;1.70;;
63018;SDS011;49105;46.046;10.760;2022-09-09T00:32:20;1.70;;;1.70;;
63018;SDS011;49105;46.046;10.760;2022-09-09T00:34:55;1.70;;;1.70;;
63018;SDS011;49105;46.046;10.760;2022-09-09T00:37:32;1.80;;;1.80;;
63018;SDS011;49105;46.046;10.760;2022-09-09T00:40:00;2.25;;;2.22;;
63018;SDS011;49105;46.046;10.760;2022-09-09T00:42:53;1.70;;;1.70;;
63018;SDS011;49105;46.046;10.760;2022-09-09T00:45:52;1.80;;;1.80;;
63018;SDS011;49105;46.046;10.760;2022-09-09T00:51:32;1.80;;;1.80;;
63018;SDS011;49105;46.046;10.760;2022-09-09T01:04:53;1.65;;;1.65;;
63018;SDS011;49105;46.046;10.760;2022-09-09T01:07:19;1.80;;;1.80;;
63018;SDS011;49105;46.046;10.760;2022-09-09T01:09:58;2.03;;;1.80;;
63018;SDS011;49105;46.046;10.760;2022-09-09T01:26:12;1.70;;;1.70;;
63018;SDS011;49105;46.046;10.760;2022-09-09T01:28:56;1.75;;;1.75;;
63018;SDS011;49105;46.046;10.760;2022-09-09T01:31:23;1.80;;;1.80;;
63018;SDS011;49105;46.046;10.760;2022-09-09T01:33:53;1.90;;;1.90;;
63018;SDS011;49105;46.046;10.760;2022-09-09T01:36:29;1.60;;;1.60;;
63018;SDS011;49105;46.046;10.760;2022-09-09T01:39:00;1.70;;;1.70;;
63018;SDS011;49105;46.046;10.760;2022-09-09T01:41:26;1.80;;;1.80;;
63018;SDS011;49105;46.046;10.760;2022-09-09T01:43:52;1.70;;;1.70;;
63018;SDS011;49105;46.046;10.760;2022-09-09T01:46:20;1.70;;;1.70;;
63018;SDS011;49105;46.046;10.760;2022-09-09T01:48:48;1.77;;;1.77;;
63018;SDS011;49105;46.046;10.760;2022-09-09T01:51:15;1.75;;;1.75;;
63018;SDS011;49105;46.046;10.760;2022-09-09T01:53:40;2.00;;;1.95;;
63018;SDS011;49105;46.046;10.760;2022-09-09T01:56:17;1.70;;;1.70;;
63018;SDS011;49105;46.046;10.760;2022-09-09T02:10:15;2.10;;;2.10;;
63018;SDS011;49105;46.046;10.760;2022-09-09T02:12:51;1.90;;;1.90;;
63018;SDS011;49105;46.046;10.760;2022-09-09T02:15:30;1.75;;;1.75;;
63018;SDS011;49105;46.046;10.760;2022-09-09T02:18:01;1.73;;;1.73;;
63018;SDS011;49105;46.046;10.760;2022-09-09T02:20:33;2.25;;;2.17;;
63018;SDS011;49105;46.046;10.760;2022-09-09T02:23:02;1.80;;;1.80;;
63018;SDS011;49105;46.046;10.760;2022-09-09T02:25:30;2.00;;;2.00;;
63018;SDS011;49105;46.046;10.760;2022-09-09T02:27:55;1.80;;;1.80;;
63018;SDS011;49105;46.046;10.760;2022-09-09T02:30:25;1.70;;;1.70;;
63018;SDS011;49105;46.046;10.760;2022-09-09T02:32:54;1.80;;;1.80;;
63018;SDS011;49105;46.046;10.760;2022-09-09T02:35:24;1.90;;;1.90;;
63018;SDS011;49105;46.046;10.760;2022-09-09T02:37:53;1.70;;;1.70;;
63018;SDS011;49105;46.046;10.760;2022-09-09T02:40:24;1.70;;;1.70;;
63018;SDS011;49105;46.046;10.760;2022-09-09T02:42:49;1.90;;;1.90;;
63018;SDS011;49105;46.046;10.760;2022-09-09T02:45:16;1.80;;;1.80;;
63018;SDS011;49105;46.046;10.760;2022-09-09T02:47:55;1.60;;;1.60;;
63018;SDS011;49105;46.046;10.760;2022-09-09T02:50:24;1.92;;;1.92;;
63018;SDS011;49105;46.046;10.760;2022-09-09T02:55:50;1.80;;;1.80;;
63018;SDS011;49105;46.046;10.760;2022-09-09T02:58:29;1.80;;;1.80;;
63018;SDS011;49105;46.046;10.760;2022-09-09T03:00:55;2.00;;;2.00;;
63018;SDS011;49105;46.046;10.760;2022-09-09T03:03:22;1.88;;;1.88;;
63018;SDS011;49105;46.046;10.760;2022-09-09T03:05:49;1.88;;;1.88;;
63018;SDS011;49105;46.046;10.760;2022-09-09T03:08:14;1.83;;;1.83;;
63018;SDS011;49105;46.046;10.760;2022-09-09T03:10:40;1.90;;;1.90;;
63018;SDS011;49105;46.046;10.760;2022-09-09T03:13:06;2.30;;;2.30;;
63018;SDS011;49105;46.046;10.760;2022-09-09T03:15:32;2.30;;;2.30;;
63018;SDS011;49105;46.046;10.760;2022-09-09T03:17:58;2.00;;;2.00;;
63018;SDS011;49105;46.046;10.760;2022-09-09T03:20:27;2.10;;;2.10;;
63018;SDS011;49105;46.046;10.760;2022-09-09T03:22:54;1.90;;;1.90;;
63018;SDS011;49105;46.046;10.760;2022-09-09T03:25:20;2.00;;;2.00;;
63018;SDS011;49105;46.046;10.760;2022-09-09T03:27:48;1.80;;;1.80;;
63018;SDS011;49105;46.046;10.760;2022-09-09T03:30:14;1.90;;;1.90;;
63018;SDS011;49105;46.046;10.760;2022-09-09T03:32:40;1.90;;;1.90;;
63018;SDS011;49105;46.046;10.760;2022-09-09T03:35:05;2.20;;;2.20;;
63018;SDS011;49105;46.046;10.760;2022-09-09T03:37:31;1.80;;;1.80;;
63018;SDS011;49105;46.046;10.760;2022-09-09T03:39:57;2.13;;;2.13;;
63018;SDS011;49105;46.046;10.760;2022-09-09T03:42:22;1.90;;;1.90;;
63018;SDS011;49105;46.046;10.760;2022-09-09T03:44:48;1.90;;;1.90;;
63018;SDS011;49105;46.046;10.760;2022-09-09T03:47:15;2.53;;;2.42;;
63018;SDS011;49105;46.046;10.760;2022-09-09T03:49:49;2.03;;;2.03;;
63018;SDS011;49105;46.046;10.760;2022-09-09T03:52:15;2.00;;;2.00;;
63018;SDS011;49105;46.046;10.760;2022-09-09T03:54:41;1.90;;;1.90;;
63018;SDS011;49105;46.046;10.760;2022-09-09T03:57:07;1.85;;;1.85;;
63018;SDS011;49105;46.046;10.760;2022-09-09T03:59:36;2.00;;;2.00;;
63018;SDS011;49105;46.046;10.760;2022-09-09T04:02:01;2.00;;;2.00;;
63018;SDS011;49105;46.046;10.760;2022-09-09T04:04:27;2.20;;;2.20;;
63018;SDS011;49105;46.046;10.760;2022-09-09T04:06:53;3.13;;;2.95;;
63018;SDS011;49105;46.046;10.760;2022-09-09T04:09:18;2.13;;;2.13;;
63018;SDS011;49105;46.046;10.760;2022-09-09T04:11:44;2.10;;;2.08;;
63018;SDS011;49105;46.046;10.760;2022-09-09T04:14:11;2.00;;;2.00;;
63018;SDS011;49105;46.046;10.760;2022-09-09T04:16:37;2.00;;;2.00;;
63018;SDS011;49105;46.046;10.760;2022-09-09T04:19:03;2.20;;;2.20;;
63018;SDS011;49105;46.046;10.760;2022-09-09T04:21:29;2.00;;;2.00;;
63018;SDS011;49105;46.046;10.760;2022-09-09T04:23:55;2.60;;;2.50;;
63018;SDS011;49105;46.046;10.760;2022-09-09T04:26:21;2.00;;;2.00;;
63018;SDS011;49105;46.046;10.760;2022-09-09T04:28:46;2.13;;;2.13;;
63018;SDS011;49105;46.046;10.760;2022-09-09T04:31:15;2.10;;;2.10;;
63018;SDS011;49105;46.046;10.760;2022-09-09T04:33:50;1.83;;;1.83;;
63018;SDS011;49105;46.046;10.760;2022-09-09T04:36:16;1.73;;;1.73;;
63018;SDS011;49105;46.046;10.760;2022-09-09T04:38:44;1.73;;;1.73;;
63018;SDS011;49105;46.046;10.760;2022-09-09T04:41:10;1.70;;;1.70;;
63018;SDS011;49105;46.046;10.760;2022-09-09T04:43:36;2.00;;;2.00;;
63018;SDS011;49105;46.046;10.760;2022-09-09T04:46:05;1.80;;;1.80;;
63018;SDS011;49105;46.046;10.760;2022-09-09T04:48:31;1.70;;;1.70;;
63018;SDS011;49105;46.046;10.760;2022-09-09T04:51:02;1.50;;;1.50;;
63018;SDS011;49105;46.046;10.760;2022-09-09T04:53:30;1.65;;;1.65;;
63018;SDS011;49105;46.046;10.760;2022-09-09T04:56:06;2.03;;;1.92;;
63018;SDS011;49105;46.046;10.760;2022-09-09T04:58:42;1.60;;;1.60;;
63018;SDS011;49105;46.046;10.760;2022-09-09T05:01:14;1.50;;;1.50;;
63018;SDS011;49105;46.046;10.760;2022-09-09T05:03:44;1.50;;;1.50;;
63018;SDS011;49105;46.046;10.760;2022-09-09T05:06:17;1.70;;;1.70;;
63018;SDS011;49105;46.046;10.760;2022-09-09T05:08:45;1.50;;;1.50;;
63018;SDS011;49105;46.046;10.760;2022-09-09T05:11:43;1.58;;;1.58;;
63018;SDS011;49105;46.046;10.760;2022-09-09T05:14:03;1.45;;;1.45;;
63018;SDS011;49105;46.046;10.760;2022-09-09T05:16:29;1.70;;;1.70;;
63018;SDS011;49105;46.046;10.760;2022-09-09T05:18:55;1.65;;;1.65;;
63018;SDS011;49105;46.046;10.760;2022-09-09T05:21:22;1.70;;;1.70;;
63018;SDS011;49105;46.046;10.760;2022-09-09T05:23:50;1.67;;;1.67;;
63018;SDS011;49105;46.046;10.760;2022-09-09T05:26:17;1.60;;;1.60;;
63018;SDS011;49105;46.046;10.760;2022-09-09T05:28:44;1.50;;;1.50;;
63018;SDS011;49105;46.046;10.760;2022-09-09T05:31:11;2.20;;;2.10;;
63018;SDS011;49105;46.046;10.760;2022-09-09T05:33:38;1.88;;;1.88;;
63018;SDS011;49105;46.046;10.760;2022-09-09T05:36:09;1.83;;;1.80;;
63018;SDS011;49105;46.046;10.760;2022-09-09T05:38:39;2.10;;;2.10;;
63018;SDS011;49105;46.046;10.760;2022-09-09T05:41:06;1.90;;;1.90;;
63018;SDS011;49105;46.046;10.760;2022-09-09T05:43:32;1.88;;;1.88;;
63018;SDS011;49105;46.046;10.760;2022-09-09T05:46:07;1.40;;;1.40;;
63018;SDS011;49105;46.046;10.760;2022-09-09T05:48:34;1.45;;;1.45;;
63018;SDS011;49105;46.046;10.760;2022-09-09T05:53:34;1.40;;;1.40;;
63018;SDS011;49105;46.046;10.760;2022-09-09T05:58:28;1.60;;;1.60;;
63018;SDS011;49105;46.046;10.760;2022-09-09T06:03:34;1.40;;;1.40;;
63018;SDS011;49105;46.046;10.760;2022-09-09T06:06:01;1.60;;;1.60;;
63018;SDS011;49105;46.046;10.760;2022-09-09T06:08:30;1.60;;;1.60;;
63018;SDS011;49105;46.046;10.760;2022-09-09T06:11:30;1.60;;;1.60;;
63018;SDS011;49105;46.046;10.760;2022-09-09T06:13:52;1.60;;;1.60;;
63018;SDS011;49105;46.046;10.760;2022-09-09T06:16:20;2.25;;;2.15;;
63018;SDS011;49105;46.046;10.760;2022-09-09T06:18:48;2.08;;;2.08;;
63018;SDS011;49105;46.046;10.760;2022-09-09T06:21:16;1.60;;;1.60;;
63018;SDS011;49105;46.046;10.760;2022-09-09T06:23:45;1.50;;;1.50;;
63018;SDS011;49105;46.046;10.760;2022-09-09T06:28:46;1.63;;;1.63;;
63018;SDS011;49105;46.046;10.760;2022-09-09T06:31:13;1.65;;;1.65;;
63018;SDS011;49105;46.046;10.760;2022-09-09T06:33:42;1.60;;;1.60;;
63018;SDS011;49105;46.046;10.760;2022-09-09T06:36:13;1.67;;;1.67;;
63018;SDS011;49105;46.046;10.760;2022-09-09T06:38:40;1.60;;;1.60;;
63018;SDS011;49105;46.046;10.760;2022-09-09T06:41:07;1.60;;;1.60;;
63018;SDS011;49105;46.046;10.760;2022-09-09T06:43:34;1.73;;;1.73;;
63018;SDS011;49105;46.046;10.760;2022-09-09T06:46:04;1.73;;;1.73;;
63018;SDS011;49105;46.046;10.760;2022-09-09T06:48:39;2.13;;;2.13;;
63018;SDS011;49105;46.046;10.760;2022-09-09T06:53:59;1.90;;;1.90;;
63018;SDS011;49105;46.046;10.760;2022-09-09T06:56:34;2.22;;;2.20;;
63018;SDS011;49105;46.046;10.760;2022-09-09T06:59:02;2.10;;;2.10;;
63018;SDS011;49105;46.046;10.760;2022-09-09T07:01:39;1.98;;;1.98;;
63018;SDS011;49105;46.046;10.760;2022-09-09T07:04:09;2.00;;;2.00;;
63018;SDS011;49105;46.046;10.760;2022-09-09T07:06:40;2.10;;;2.10;;
63018;SDS011;49105;46.046;10.760;2022-09-09T07:09:14;2.30;;;2.30;;
63018;SDS011;49105;46.046;10.760;2022-09-09T07:11:42;2.92;;;2.83;;
63018;SDS011;49105;46.046;10.760;2022-09-09T07:14:09;2.55;;;2.55;;
63018;SDS011;49105;46.046;10.760;2022-09-09T07:16:42;2.97;;;2.88;;
63018;SDS011;49105;46.046;10.760;2022-09-09T07:19:17;3.10;;;3.00;;
63018;SDS011;49105;46.046;10.760;2022-09-09T07:21:43;2.92;;;2.83;;
63018;SDS011;49105;46.046;10.760;2022-09-09T07:24:09;2.45;;;2.45;;
63018;SDS011;49105;46.046;10.760;2022-09-09T07:26:41;2.90;;;2.80;;
63018;SDS011;49105;46.046;10.760;2022-09-09T07:29:17;2.88;;;2.78;;
63018;SDS011;49105;46.046;10.760;2022-09-09T07:31:52;2.72;;;2.63;;
63018;SDS011;49105;46.046;10.760;2022-09-09T07:34:26;2.45;;;2.45;;
63018;SDS011;49105;46.046;10.760;2022-09-09T07:36:58;2.30;;;2.30;;
63018;SDS011;49105;46.046;10.760;2022-09-09T07:39:23;2.60;;;2.60;;
63018;SDS011;49105;46.046;10.760;2022-09-09T07:41:49;2.60;;;2.50;;
63018;SDS011;49105;46.046;10.760;2022-09-09T07:44:17;2.40;;;2.40;;
63018;SDS011;49105;46.046;10.760;2022-09-09T07:46:46;2.80;;;2.70;;
63018;SDS011;49105;46.046;10.760;2022-09-09T07:49:12;2.50;;;2.50;;
63018;SDS011;49105;46.046;10.760;2022-09-09T07:51:39;6.15;;;2.70;;
63018;SDS011;49105;46.046;10.760;2022-09-09T07:54:11;2.63;;;2.53;;
63018;SDS011;49105;46.046;10.760;2022-09-09T07:56:38;2.75;;;2.65;;
63018;SDS011;49105;46.046;10.760;2022-09-09T07:59:05;2.50;;;2.50;;
63018;SDS011;49105;46.046;10.760;2022-09-09T08:01:35;2.40;;;2.30;;
63018;SDS011;49105;46.046;10.760;2022-09-09T08:04:05;2.00;;;2.00;;
63018;SDS011;49105;46.046;10.760;2022-09-09T08:06:34;2.00;;;2.00;;
63018;SDS011;49105;46.046;10.760;2022-09-09T08:09:05;2.00;;;2.00;;
63018;SDS011;49105;46.046;10.760;2022-09-09T08:11:38;2.10;;;2.10;;
63018;SDS011;49105;46.046;10.760;2022-09-09T08:14:14;2.13;;;2.13;;
63018;SDS011;49105;46.046;10.760;2022-09-09T08:16:41;2.17;;;2.10;;
63018;SDS011;49105;46.046;10.760;2022-09-09T08:19:08;1.98;;;1.98;;
63018;SDS011;49105;46.046;10.760;2022-09-09T08:21:38;1.90;;;1.90;;
63018;SDS011;49105;46.046;10.760;2022-09-09T08:27:27;1.77;;;1.77;;
63018;SDS011;49105;46.046;10.760;2022-09-09T08:29:55;1.80;;;1.80;;
63018;SDS011;49105;46.046;10.760;2022-09-09T08:32:21;2.00;;;2.00;;
63018;SDS011;49105;46.046;10.760;2022-09-09T08:34:48;1.70;;;1.70;;
63018;SDS011;49105;46.046;10.760;2022-09-09T08:37:14;1.90;;;1.90;;
63018;SDS011;49105;46.046;10.760;2022-09-09T08:39:39;1.88;;;1.88;;
63018;SDS011;49105;46.046;10.760;2022-09-09T08:42:08;1.85;;;1.85;;
63018;SDS011;49105;46.046;10.760;2022-09-09T08:50:33;1.70;;;1.70;;
63018;SDS011;49105;46.046;10.760;2022-09-09T08:58:18;1.70;;;1.70;;
63018;SDS011;49105;46.046;10.760;2022-09-09T09:11:34;1.80;;;1.80;;
63018;SDS011;49105;46.046;10.760;2022-09-09T09:14:03;1.60;;;1.60;;
63018;SDS011;49105;46.046;10.760;2022-09-09T09:19:23;1.70;;;1.70;;
63018;SDS011;49105;46.046;10.760;2022-09-09T09:21:57;1.80;;;1.80;;
63018;SDS011;49105;46.046;10.760;2022-09-09T09:27:14;1.92;;;1.92;;
63018;SDS011;49105;46.046;10.760;2022-09-09T09:29:43;1.70;;;1.70;;
63018;SDS011;49105;46.046;10.760;2022-09-09T09:32:14;1.90;;;1.90;;
63018;SDS011;49105;46.046;10.760;2022-09-09T09:34:48;1.65;;;1.65;;
63018;SDS011;49105;46.046;10.760;2022-09-09T09:37:17;1.83;;;1.83;;
63018;SDS011;49105;46.046;10.760;2022-09-09T09:39:52;1.60;;;1.60;;
63018;SDS011;49105;46.046;10.760;2022-09-09T09:42:18;1.67;;;1.67;;
63018;SDS011;49105;46.046;10.760;2022-09-09T09:44:44;1.52;;;1.52;;
63018;SDS011;49105;46.046;10.760;2022-09-09T09:47:20;1.58;;;1.58;;
63018;SDS011;49105;46.046;10.760;2022-09-09T09:49:59;2.92;;;1.92;;
63018;SDS011;49105;46.046;10.760;2022-09-09T09:52:35;1.95;;;1.95;;
63018;SDS011;49105;46.046;10.760;2022-09-09T09:55:03;1.95;;;1.83;;
63018;SDS011;49105;46.046;10.760;2022-09-09T09:57:35;1.60;;;1.60;;
63018;SDS011;49105;46.046;10.760;2022-09-09T10:00:14;1.67;;;1.67;;
63018;SDS011;49105;46.046;10.760;2022-09-09T10:02:46;1.83;;;1.83;;
63018;SDS011;49105;46.046;10.760;2022-09-09T10:05:22;1.40;;;1.40;;
63018;SDS011;49105;46.046;10.760;2022-09-09T10:08:24;2.05;;;2.05;;
63018;SDS011;49105;46.046;10.760;2022-09-09T10:10:49;1.73;;;1.73;;
63018;SDS011;49105;46.046;10.760;2022-09-09T10:13:30;1.73;;;1.73;;
63018;SDS011;49105;46.046;10.760;2022-09-09T10:19:30;1.58;;;1.58;;
63018;SDS011;49105;46.046;10.760;2022-09-09T10:22:07;1.75;;;1.75;;
63018;SDS011;49105;46.046;10.760;2022-09-09T10:30:17;1.30;;;1.30;;
63018;SDS011;49105;46.046;10.760;2022-09-09T10:35:30;1.70;;;1.70;;
63018;SDS011;49105;46.046;10.760;2022-09-09T10:38:14;1.70;;;1.70;;
63018;SDS011;49105;46.046;10.760;2022-09-09T10:51:47;2.08;;;1.98;;
63018;SDS011;49105;46.046;10.760;2022-09-09T10:59:54;1.80;;;1.80;;
63018;SDS011;49105;46.046;10.760;2022-09-09T11:02:28;1.60;;;1.60;;
63018;SDS011;49105;46.046;10.760;2022-09-09T11:07:28;1.90;;;1.83;;
63018;SDS011;49105;46.046;10.760;2022-09-09T11:10:30;1.80;;;1.80;;
63018;SDS011;49105;46.046;10.760;2022-09-09T11:13:11;1.70;;;1.70;;
63018;SDS011;49105;46.046;10.760;2022-09-09T11:15:45;1.70;;;1.70;;
63018;SDS011;49105;46.046;10.760;2022-09-09T11:18:19;1.70;;;1.70;;
63018;SDS011;49105;46.046;10.760;2022-09-09T11:20:48;1.80;;;1.80;;
63018;SDS011;49105;46.046;10.760;2022-09-09T11:23:24;1.50;;;1.50;;
63018;SDS011;49105;46.046;10.760;2022-09-09T11:25:58;1.30;;;1.30;;
63018;SDS011;49105;46.046;10.760;2022-09-09T11:31:52;1.70;;;1.70;;
63018;SDS011;49105;46.046;10.760;2022-09-09T11:43:12;1.70;;;1.70;;
63018;SDS011;49105;46.046;10.760;2022-09-09T11:45:58;1.60;;;1.60;;
63018;SDS011;49105;46.046;10.760;2022-09-09T11:53:58;2.03;;;1.90;;
63018;SDS011;49105;46.046;10.760;2022-09-09T11:59:00;1.77;;;1.77;;
63018;SDS011;49105;46.046;10.760;2022-09-09T12:01:34;1.65;;;1.65;;
63018;SDS011;49105;46.046;10.760;2022-09-09T12:04:27;1.80;;;1.80;;
63018;SDS011;49105;46.046;10.760;2022-09-09T12:06:59;1.73;;;1.73;;
63018;SDS011;49105;46.046;10.760;2022-09-09T12:19:39;1.70;;;1.70;;
63018;SDS011;49105;46.046;10.760;2022-09-09T12:22:07;1.90;;;1.90;;
63018;SDS011;49105;46.046;10.760;2022-09-09T12:27:34;1.75;;;1.75;;
63018;SDS011;49105;46.046;10.760;2022-09-09T12:30:10;1.70;;;1.70;;
63018;SDS011;49105;46.046;10.760;2022-09-09T12:32:39;1.73;;;1.73;;
63018;SDS011;49105;46.046;10.760;2022-09-09T12:35:12;1.70;;;1.70;;
63018;SDS011;49105;46.046;10.760;2022-09-09T12:37:44;1.80;;;1.80;;
63018;SDS011;49105;46.046;10.760;2022-09-09T12:42:45;1.95;;;1.95;;
63018;SDS011;49105;46.046;10.760;2022-09-09T12:45:18;1.75;;;1.75;;
63018;SDS011;49105;46.046;10.760;2022-09-09T12:47:51;1.90;;;1.90;;
63018;SDS011;49105;46.046;10.760;2022-09-09T12:50:35;1.80;;;1.80;;
63018;SDS011;49105;46.046;10.760;2022-09-09T12:56:00;1.88;;;1.88;;
63018;SDS011;49105;46.046;10.760;2022-09-09T12:58:29;1.87;;;1.87;;
63018;SDS011;49105;46.046;10.760;2022-09-09T13:00:59;1.80;;;1.80;;
63018;SDS011;49105;46.046;10.760;2022-09-09T13:03:29;1.70;;;1.70;;
63018;SDS011;49105;46.046;10.760;2022-09-09T13:05:58;1.70;;;1.70;;
63018;SDS011;49105;46.046;10.760;2022-09-09T13:08:35;1.60;;;1.60;;
63018;SDS011;49105;46.046;10.760;2022-09-09T13:11:01;1.70;;;1.70;;
63018;SDS011;49105;46.046;10.760;2022-09-09T13:16:03;1.60;;;1.60;;
63018;SDS011;49105;46.046;10.760;2022-09-09T13:18:33;1.48;;;1.48;;
63018;SDS011;49105;46.046;10.760;2022-09-09T13:21:01;1.80;;;1.80;;
63018;SDS011;49105;46.046;10.760;2022-09-09T13:23:30;1.60;;;1.60;;
63018;SDS011;49105;46.046;10.760;2022-09-09T13:25:59;1.80;;;1.80;;
63018;SDS011;49105;46.046;10.760;2022-09-09T13:28:27;1.88;;;1.88;;
63018;SDS011;49105;46.046;10.760;2022-09-09T13:30:58;1.70;;;1.70;;
63018;SDS011;49105;46.046;10.760;2022-09-09T13:33:32;1.70;;;1.70;;
63018;SDS011;49105;46.046;10.760;2022-09-09T13:36:02;1.70;;;1.70;;
63018;SDS011;49105;46.046;10.760;2022-09-09T13:38:33;1.85;;;1.85;;
63018;SDS011;49105;46.046;10.760;2022-09-09T13:41:21;1.80;;;1.80;;
63018;SDS011;49105;46.046;10.760;2022-09-09T13:44:01;2.00;;;2.00;;
63018;SDS011;49105;46.046;10.760;2022-09-09T13:54:11;3.00;;;2.00;;
63018;SDS011;49105;46.046;10.760;2022-09-09T13:56:41;1.70;;;1.70;;
63018;SDS011;49105;46.046;10.760;2022-09-09T13:59:11;1.50;;;1.50;;
63018;SDS011;49105;46.046;10.760;2022-09-09T14:04:11;1.23;;;1.23;;
63018;SDS011;49105;46.046;10.760;2022-09-09T14:06:43;1.98;;;1.98;;
63018;SDS011;49105;46.046;10.760;2022-09-09T14:09:16;1.60;;;1.60;;
63018;SDS011;49105;46.046;10.760;2022-09-09T14:11:48;1.60;;;1.60;;
63018;SDS011;49105;46.046;10.760;2022-09-09T14:14:20;1.27;;;1.27;;
63018;SDS011;49105;46.046;10.760;2022-09-09T14:16:51;1.48;;;1.48;;
63018;SDS011;49105;46.046;10.760;2022-09-09T14:19:17;1.40;;;1.40;;
63018;SDS011;49105;46.046;10.760;2022-09-09T14:21:49;1.60;;;1.60;;
63018;SDS011;49105;46.046;10.760;2022-09-09T14:24:18;1.50;;;1.50;;
63018;SDS011;49105;46.046;10.760;2022-09-09T14:26:49;1.50;;;1.50;;
63018;SDS011;49105;46.046;10.760;2022-09-09T14:29:24;1.50;;;1.50;;
63018;SDS011;49105;46.046;10.760;2022-09-09T14:31:51;1.20;;;1.20;;
63018;SDS011;49105;46.046;10.760;2022-09-09T14:34:23;1.60;;;1.60;;
63018;SDS011;49105;46.046;10.760;2022-09-09T14:36:55;1.80;;;1.80;;
63018;SDS011;49105;46.046;10.760;2022-09-09T14:39:26;1.60;;;1.60;;
63018;SDS011;49105;46.046;10.760;2022-09-09T14:41:55;1.60;;;1.60;;
63018;SDS011;49105;46.046;10.760;2022-09-09T14:44:21;1.70;;;1.70;;
63018;SDS011;49105;46.046;10.760;2022-09-09T14:46:47;1.80;;;1.80;;
63018;SDS011;49105;46.046;10.760;2022-09-09T14:49:18;1.70;;;1.70;;
63018;SDS011;49105;46.046;10.760;2022-09-09T14:51:43;1.70;;;1.70;;
63018;SDS011;49105;46.046;10.760;2022-09-09T14:54:15;1.50;;;1.50;;
63018;SDS011;49105;46.046;10.760;2022-09-09T14:56:44;1.60;;;1.60;;
63018;SDS011;49105;46.046;10.760;2022-09-09T14:59:10;1.60;;;1.60;;
63018;SDS011;49105;46.046;10.760;2022-09-09T15:01:36;1.60;;;1.60;;
63018;SDS011;49105;46.046;10.760;2022-09-09T15:04:12;1.60;;;1.60;;
63018;SDS011;49105;46.046;10.760;2022-09-09T15:06:42;2.20;;;2.20;;
63018;SDS011;49105;46.046;10.760;2022-09-09T15:09:14;1.67;;;1.67;;
63018;SDS011;49105;46.046;10.760;2022-09-09T15:11:40;1.60;;;1.60;;
63018;SDS011;49105;46.046;10.760;2022-09-09T15:14:08;1.50;;;1.50;;
63018;SDS011;49105;46.046;10.760;2022-09-09T15:16:41;1.70;;;1.70;;
63018;SDS011;49105;46.046;10.760;2022-09-09T15:19:12;1.60;;;1.60;;
63018;SDS011;49105;46.046;10.760;2022-09-09T15:21:44;1.65;;;1.65;;
63018;SDS011;49105;46.046;10.760;2022-09-09T15:24:10;1.90;;;1.90;;
63018;SDS011;49105;46.046;10.760;2022-09-09T15:26:36;1.20;;;1.20;;
63018;SDS011;49105;46.046;10.760;2022-09-09T15:29:03;1.90;;;1.90;;
63018;SDS011;49105;46.046;10.760;2022-09-09T15:31:35;1.60;;;1.60;;
63018;SDS011;49105;46.046;10.760;2022-09-09T15:34:11;1.88;;;1.88;;
63018;SDS011;49105;46.046;10.760;2022-09-09T15:36:42;2.05;;;2.00;;
63018;SDS011;49105;46.046;10.760;2022-09-09T15:39:17;1.77;;;1.77;;
63018;SDS011;49105;46.046;10.760;2022-09-09T15:41:49;1.88;;;1.88;;
63018;SDS011;49105;46.046;10.760;2022-09-09T15:44:15;1.60;;;1.60;;
63018;SDS011;49105;46.046;10.760;2022-09-09T15:46:42;1.60;;;1.60;;
63018;SDS011;49105;46.046;10.760;2022-09-09T15:51:44;1.50;;;1.50;;
63018;SDS011;49105;46.046;10.760;2022-09-09T15:54:12;1.50;;;1.50;;
63018;SDS011;49105;46.046;10.760;2022-09-09T15:56:41;1.55;;;1.55;;
63018;SDS011;49105;46.046;10.760;2022-09-09T15:59:10;1.50;;;1.50;;
63018;SDS011;49105;46.046;10.760;2022-09-09T16:01:36;1.70;;;1.70;;
63018;SDS011;49105;46.046;10.760;2022-09-09T16:04:08;1.70;;;1.70;;
63018;SDS011;49105;46.046;10.760;2022-09-09T16:06:35;1.80;;;1.80;;
63018;SDS011;49105;46.046;10.760;2022-09-09T16:09:03;1.60;;;1.60;;
63018;SDS011;49105;46.046;10.760;2022-09-09T16:11:34;1.60;;;1.60;;
63018;SDS011;49105;46.046;10.760;2022-09-09T16:14:02;1.73;;;1.73;;
63018;SDS011;49105;46.046;10.760;2022-09-09T16:16:35;2.17;;;2.17;;
63018;SDS011;49105;46.046;10.760;2022-09-09T16:19:03;1.73;;;1.73;;
63018;SDS011;49105;46.046;10.760;2022-09-09T16:21:32;1.60;;;1.60;;
63018;SDS011;49105;46.046;10.760;2022-09-09T16:24:00;1.67;;;1.67;;
63018;SDS011;49105;46.046;10.760;2022-09-09T16:26:30;1.70;;;1.70;;
63018;SDS011;49105;46.046;10.760;2022-09-09T16:29:04;2.00;;;2.00;;
63018;SDS011;49105;46.046;10.760;2022-09-09T16:31:36;1.70;;;1.70;;
63018;SDS011;49105;46.046;10.760;2022-09-09T16:34:02;1.67;;;1.67;;
63018;SDS011;49105;46.046;10.760;2022-09-09T16:36:32;1.70;;;1.70;;
63018;SDS011;49105;46.046;10.760;2022-09-09T16:39:05;1.60;;;1.60;;
63018;SDS011;49105;46.046;10.760;2022-09-09T16:41:33;1.42;;;1.42;;
63018;SDS011;49105;46.046;10.760;2022-09-09T16:44:01;1.50;;;1.50;;
63018;SDS011;49105;46.046;10.760;2022-09-09T16:46:36;1.77;;;1.77;;
63018;SDS011;49105;46.046;10.760;2022-09-09T16:49:11;1.50;;;1.50;;
63018;SDS011;49105;46.046;10.760;2022-09-09T16:51:47;1.42;;;1.42;;
63018;SDS011;49105;46.046;10.760;2022-09-09T16:54:19;1.80;;;1.80;;
63018;SDS011;49105;46.046;10.760;2022-09-09T16:56:57;1.60;;;1.60;;
63018;SDS011;49105;46.046;10.760;2022-09-09T16:59:30;1.77;;;1.73;;
63018;SDS011;49105;46.046;10.760;2022-09-09T17:01:59;2.45;;;2.35;;
63018;SDS011;49105;46.046;10.760;2022-09-09T17:04:38;1.60;;;1.60;;
63018;SDS011;49105;46.046;10.760;2022-09-09T17:07:11;1.58;;;1.58;;
63018;SDS011;49105;46.046;10.760;2022-09-09T17:09:43;1.90;;;1.90;;
63018;SDS011;49105;46.046;10.760;2022-09-09T17:12:10;1.90;;;1.80;;
63018;SDS011;49105;46.046;10.760;2022-09-09T17:14:37;1.70;;;1.70;;
63018;SDS011;49105;46.046;10.760;2022-09-09T17:17:03;1.50;;;1.50;;
63018;SDS011;49105;46.046;10.760;2022-09-09T17:19:30;1.70;;;1.70;;
63018;SDS011;49105;46.046;10.760;2022-09-09T17:21:56;1.60;;;1.60;;
63018;SDS011;49105;46.046;10.760;2022-09-09T17:24:26;1.60;;;1.60;;
63018;SDS011;49105;46.046;10.760;2022-09-09T17:26:53;1.70;;;1.70;;
63018;SDS011;49105;46.046;10.760;2022-09-09T17:29:20;1.60;;;1.60;;
63018;SDS011;49105;46.046;10.760;2022-09-09T17:31:46;2.13;;;2.13;;
63018;SDS011;49105;46.046;10.760;2022-09-09T17:34:12;2.10;;;2.10;;
63018;SDS011;49105;46.046;10.760;2022-09-09T17:36:39;2.47;;;2.38;;
63018;SDS011;49105;46.046;10.760;2022-09-09T17:39:05;1.80;;;1.80;;
63018;SDS011;49105;46.046;10.760;2022-09-09T17:41:37;1.90;;;1.90;;
63018;SDS011;49105;46.046;10.760;2022-09-09T17:44:05;1.80;;;1.80;;
63018;SDS011;49105;46.046;10.760;2022-09-09T17:46:35;1.75;;;1.75;;
63018;SDS011;49105;46.046;10.760;2022-09-09T17:49:04;1.92;;;1.92;;